sensor_id;sensor_type;location;lat;lon;timestamp;P1;durP1;ratioP1;P2;durP2;ratioP2
2956;SDS011;1488;51.548;7.222;2022-08-03T00:01:57;1.57;;;1.47;;
2956;SDS011;1488;51.548;7.222;2022-08-03T00:04:25;1.50;;;1.40;;
2956;SDS011;1488;51.548;7.222;2022-08-03T00:06:52;1.47;;;1.37;;
2956;SDS011;1488;51.548;7.222;2022-08-03T00:09:19;1.77;;;1.67;;
2956;SDS011;1488;51.548;7.222;2022-08-03T00:11:47;1.57;;;1.47;;
2956;SDS011;1488;51.548;7.222;2022-08-03T00:14:14;2.00;;;1.90;;
2956;SDS011;1488;51.548;7.222;2022-08-03T00:16:41;1.60;;;1.50;;
2956;SDS011;1488;51.548;7.222;2022-08-03T00:19:08;1.70;;;1.60;;
2956;SDS011;1488;51.548;7.222;2022-08-03T00:21:35;1.43;;;1.33;;
2956;SDS011;1488;51.548;7.222;2022-08-03T00:24:02;1.83;;;1.73;;
2956;SDS011;1488;51.548;7.222;2022-08-03T00:26:30;1.60;;;1.50;;
2956;SDS011;1488;51.548;7.222;2022-08-03T00:28:58;1.70;;;1.60;;
2956;SDS011;1488;51.548;7.222;2022-08-03T00:31:25;1.70;;;1.60;;
2956;SDS011;1488;51.548;7.222;2022-08-03T00:33:52;1.60;;;1.50;;
2956;SDS011;1488;51.548;7.222;2022-08-03T00:36:18;1.40;;;1.30;;
2956;SDS011;1488;51.548;7.222;2022-08-03T00:38:45;1.67;;;1.57;;
2956;SDS011;1488;51.548;7.222;2022-08-03T00:41:12;1.30;;;1.20;;
2956;SDS011;1488;51.548;7.222;2022-08-03T00:43:39;1.87;;;1.77;;
2956;SDS011;1488;51.548;7.222;2022-08-03T00:46:08;1.50;;;1.40;;
2956;SDS011;1488;51.548;7.222;2022-08-03T00:48:34;1.60;;;1.50;;
2956;SDS011;1488;51.548;7.222;2022-08-03T00:51:02;1.50;;;1.40;;
2956;SDS011;1488;51.548;7.222;2022-08-03T00:53:29;1.93;;;1.83;;
2956;SDS011;1488;51.548;7.222;2022-08-03T00:55:57;1.60;;;1.50;;
2956;SDS011;1488;51.548;7.222;2022-08-03T00:58:24;1.43;;;1.33;;
2956;SDS011;1488;51.548;7.222;2022-08-03T01:00:51;1.50;;;1.40;;
2956;SDS011;1488;51.548;7.222;2022-08-03T01:03:19;1.50;;;1.40;;
2956;SDS011;1488;51.548;7.222;2022-08-03T01:05:48;1.60;;;1.50;;
2956;SDS011;1488;51.548;7.222;2022-08-03T01:08:21;1.40;;;1.30;;
2956;SDS011;1488;51.548;7.222;2022-08-03T01:10:55;1.50;;;1.40;;
2956;SDS011;1488;51.548;7.222;2022-08-03T01:13:30;1.50;;;1.40;;
2956;SDS011;1488;51.548;7.222;2022-08-03T01:16:05;1.30;;;1.20;;
2956;SDS011;1488;51.548;7.222;2022-08-03T01:18:40;1.40;;;1.30;;
2956;SDS011;1488;51.548;7.222;2022-08-03T01:21:13;1.40;;;1.30;;
2956;SDS011;1488;51.548;7.222;2022-08-03T01:23:53;1.47;;;1.37;;
2956;SDS011;1488;51.548;7.222;2022-08-03T01:29:48;1.30;;;1.20;;
2956;SDS011;1488;51.548;7.222;2022-08-03T01:32:25;1.40;;;1.30;;
2956;SDS011;1488;51.548;7.222;2022-08-03T01:34:58;1.70;;;1.60;;
2956;SDS011;1488;51.548;7.222;2022-08-03T01:37:31;1.40;;;1.10;;
2956;SDS011;1488;51.548;7.222;2022-08-03T01:40:02;1.60;;;1.50;;
2956;SDS011;1488;51.548;7.222;2022-08-03T01:42:31;1.57;;;1.47;;
2956;SDS011;1488;51.548;7.222;2022-08-03T01:45:01;1.70;;;1.60;;
2956;SDS011;1488;51.548;7.222;2022-08-03T01:47:29;1.40;;;1.30;;
2956;SDS011;1488;51.548;7.222;2022-08-03T01:49:57;1.40;;;1.27;;
2956;SDS011;1488;51.548;7.222;2022-08-03T01:52:27;1.47;;;1.37;;
2956;SDS011;1488;51.548;7.222;2022-08-03T01:54:55;1.60;;;1.50;;
2956;SDS011;1488;51.548;7.222;2022-08-03T01:57:24;1.57;;;1.47;;
2956;SDS011;1488;51.548;7.222;2022-08-03T01:59:53;1.50;;;1.40;;
2956;SDS011;1488;51.548;7.222;2022-08-03T02:02:23;1.77;;;1.67;;
2956;SDS011;1488;51.548;7.222;2022-08-03T02:04:52;1.63;;;1.53;;
2956;SDS011;1488;51.548;7.222;2022-08-03T02:07:20;1.60;;;1.50;;
2956;SDS011;1488;51.548;7.222;2022-08-03T02:09:49;1.37;;;1.27;;
2956;SDS011;1488;51.548;7.222;2022-08-03T02:12:17;1.53;;;1.43;;
2956;SDS011;1488;51.548;7.222;2022-08-03T02:14:45;1.40;;;1.30;;
2956;SDS011;1488;51.548;7.222;2022-08-03T02:17:15;1.57;;;1.47;;
2956;SDS011;1488;51.548;7.222;2022-08-03T02:19:43;1.37;;;1.27;;
2956;SDS011;1488;51.548;7.222;2022-08-03T02:22:10;1.57;;;1.47;;
2956;SDS011;1488;51.548;7.222;2022-08-03T02:24:39;1.30;;;1.20;;
2956;SDS011;1488;51.548;7.222;2022-08-03T02:27:08;1.30;;;1.20;;
2956;SDS011;1488;51.548;7.222;2022-08-03T02:29:40;1.37;;;1.27;;
2956;SDS011;1488;51.548;7.222;2022-08-03T02:32:11;1.53;;;1.43;;
2956;SDS011;1488;51.548;7.222;2022-08-03T02:34:39;1.30;;;1.20;;
2956;SDS011;1488;51.548;7.222;2022-08-03T02:37:11;1.63;;;1.53;;
2956;SDS011;1488;51.548;7.222;2022-08-03T02:39:40;1.40;;;1.30;;
2956;SDS011;1488;51.548;7.222;2022-08-03T02:42:07;1.87;;;1.77;;
2956;SDS011;1488;51.548;7.222;2022-08-03T02:44:35;1.63;;;1.37;;
2956;SDS011;1488;51.548;7.222;2022-08-03T02:47:08;1.60;;;1.50;;
2956;SDS011;1488;51.548;7.222;2022-08-03T02:49:37;1.30;;;1.20;;
2956;SDS011;1488;51.548;7.222;2022-08-03T02:52:05;1.40;;;1.30;;
2956;SDS011;1488;51.548;7.222;2022-08-03T02:54:35;1.57;;;1.47;;
2956;SDS011;1488;51.548;7.222;2022-08-03T02:57:03;1.53;;;1.43;;
2956;SDS011;1488;51.548;7.222;2022-08-03T02:59:32;1.40;;;1.30;;
2956;SDS011;1488;51.548;7.222;2022-08-03T03:02:00;1.40;;;1.30;;
2956;SDS011;1488;51.548;7.222;2022-08-03T03:04:28;1.60;;;1.50;;
2956;SDS011;1488;51.548;7.222;2022-08-03T03:06:56;1.43;;;1.33;;
2956;SDS011;1488;51.548;7.222;2022-08-03T03:09:25;1.70;;;1.50;;
2956;SDS011;1488;51.548;7.222;2022-08-03T03:11:52;1.40;;;1.30;;
2956;SDS011;1488;51.548;7.222;2022-08-03T03:14:19;1.60;;;1.50;;
2956;SDS011;1488;51.548;7.222;2022-08-03T03:16:48;1.80;;;1.70;;
2956;SDS011;1488;51.548;7.222;2022-08-03T03:19:16;1.63;;;1.40;;
2956;SDS011;1488;51.548;7.222;2022-08-03T03:21:45;1.40;;;1.30;;
2956;SDS011;1488;51.548;7.222;2022-08-03T03:24:12;1.27;;;1.17;;
2956;SDS011;1488;51.548;7.222;2022-08-03T03:26:42;1.80;;;1.70;;
2956;SDS011;1488;51.548;7.222;2022-08-03T03:29:09;1.40;;;1.30;;
2956;SDS011;1488;51.548;7.222;2022-08-03T03:31:37;1.20;;;1.10;;
2956;SDS011;1488;51.548;7.222;2022-08-03T03:34:04;1.57;;;1.47;;
2956;SDS011;1488;51.548;7.222;2022-08-03T03:36:31;1.40;;;1.30;;
2956;SDS011;1488;51.548;7.222;2022-08-03T03:38:58;1.40;;;1.30;;
2956;SDS011;1488;51.548;7.222;2022-08-03T03:41:25;1.50;;;1.40;;
2956;SDS011;1488;51.548;7.222;2022-08-03T03:43:53;1.50;;;1.40;;
2956;SDS011;1488;51.548;7.222;2022-08-03T03:46:20;1.60;;;1.50;;
2956;SDS011;1488;51.548;7.222;2022-08-03T03:48:47;1.50;;;1.40;;
2956;SDS011;1488;51.548;7.222;2022-08-03T03:51:15;1.30;;;1.20;;
2956;SDS011;1488;51.548;7.222;2022-08-03T03:53:52;1.10;;;1.00;;
2956;SDS011;1488;51.548;7.222;2022-08-03T03:56:21;1.43;;;1.33;;
2956;SDS011;1488;51.548;7.222;2022-08-03T03:58:47;1.30;;;1.20;;
2956;SDS011;1488;51.548;7.222;2022-08-03T04:01:16;1.63;;;1.53;;
2956;SDS011;1488;51.548;7.222;2022-08-03T04:03:43;1.53;;;1.43;;
2956;SDS011;1488;51.548;7.222;2022-08-03T04:06:09;1.43;;;1.33;;
2956;SDS011;1488;51.548;7.222;2022-08-03T04:08:55;1.60;;;1.50;;
2956;SDS011;1488;51.548;7.222;2022-08-03T04:11:40;1.40;;;1.30;;
2956;SDS011;1488;51.548;7.222;2022-08-03T04:14:11;1.33;;;1.23;;
2956;SDS011;1488;51.548;7.222;2022-08-03T04:16:44;1.70;;;1.60;;
2956;SDS011;1488;51.548;7.222;2022-08-03T04:19:14;1.47;;;1.37;;
2956;SDS011;1488;51.548;7.222;2022-08-03T04:21:43;1.70;;;1.60;;
2956;SDS011;1488;51.548;7.222;2022-08-03T04:24:14;1.83;;;1.27;;
2956;SDS011;1488;51.548;7.222;2022-08-03T04:26:42;1.40;;;1.30;;
2956;SDS011;1488;51.548;7.222;2022-08-03T04:29:12;1.43;;;1.33;;
2956;SDS011;1488;51.548;7.222;2022-08-03T04:31:39;1.30;;;1.20;;
2956;SDS011;1488;51.548;7.222;2022-08-03T04:34:10;1.40;;;1.30;;
2956;SDS011;1488;51.548;7.222;2022-08-03T04:36:38;1.30;;;1.20;;
2956;SDS011;1488;51.548;7.222;2022-08-03T04:39:14;1.40;;;1.30;;
2956;SDS011;1488;51.548;7.222;2022-08-03T04:41:44;1.53;;;1.43;;
2956;SDS011;1488;51.548;7.222;2022-08-03T04:44:13;1.60;;;1.50;;
2956;SDS011;1488;51.548;7.222;2022-08-03T04:46:43;1.40;;;1.30;;
2956;SDS011;1488;51.548;7.222;2022-08-03T04:49:10;1.30;;;1.20;;
2956;SDS011;1488;51.548;7.222;2022-08-03T04:51:38;1.47;;;1.37;;
2956;SDS011;1488;51.548;7.222;2022-08-03T04:54:05;1.43;;;1.33;;
2956;SDS011;1488;51.548;7.222;2022-08-03T04:56:32;1.80;;;1.70;;
2956;SDS011;1488;51.548;7.222;2022-08-03T04:58:59;1.80;;;1.70;;
2956;SDS011;1488;51.548;7.222;2022-08-03T05:01:27;4.70;;;2.20;;
2956;SDS011;1488;51.548;7.222;2022-08-03T05:03:55;2.90;;;2.13;;
2956;SDS011;1488;51.548;7.222;2022-08-03T05:06:22;2.93;;;2.37;;
2956;SDS011;1488;51.548;7.222;2022-08-03T05:08:49;3.97;;;2.63;;
2956;SDS011;1488;51.548;7.222;2022-08-03T05:11:15;2.50;;;2.30;;
2956;SDS011;1488;51.548;7.222;2022-08-03T05:13:43;4.70;;;3.00;;
2956;SDS011;1488;51.548;7.222;2022-08-03T05:16:10;3.43;;;3.13;;
2956;SDS011;1488;51.548;7.222;2022-08-03T05:18:38;4.90;;;2.33;;
2956;SDS011;1488;51.548;7.222;2022-08-03T05:21:06;5.73;;;3.10;;
2956;SDS011;1488;51.548;7.222;2022-08-03T05:23:33;7.43;;;2.93;;
2956;SDS011;1488;51.548;7.222;2022-08-03T05:26:01;3.53;;;3.23;;
2956;SDS011;1488;51.548;7.222;2022-08-03T05:28:28;5.60;;;3.37;;
2956;SDS011;1488;51.548;7.222;2022-08-03T05:30:55;2.80;;;2.50;;
2956;SDS011;1488;51.548;7.222;2022-08-03T05:33:22;3.13;;;2.80;;
2956;SDS011;1488;51.548;7.222;2022-08-03T05:35:49;3.70;;;3.03;;
2956;SDS011;1488;51.548;7.222;2022-08-03T05:38:17;3.07;;;2.73;;
2956;SDS011;1488;51.548;7.222;2022-08-03T05:40:45;2.83;;;2.53;;
2956;SDS011;1488;51.548;7.222;2022-08-03T05:43:11;3.83;;;3.00;;
2956;SDS011;1488;51.548;7.222;2022-08-03T05:45:38;3.10;;;2.40;;
2956;SDS011;1488;51.548;7.222;2022-08-03T05:48:05;3.33;;;3.00;;
2956;SDS011;1488;51.548;7.222;2022-08-03T05:50:32;2.50;;;2.30;;
2956;SDS011;1488;51.548;7.222;2022-08-03T05:53:00;5.43;;;2.77;;
2956;SDS011;1488;51.548;7.222;2022-08-03T05:55:28;2.60;;;2.40;;
2956;SDS011;1488;51.548;7.222;2022-08-03T05:57:55;3.37;;;3.10;;
2956;SDS011;1488;51.548;7.222;2022-08-03T06:00:22;2.40;;;2.20;;
2956;SDS011;1488;51.548;7.222;2022-08-03T06:02:49;2.87;;;2.57;;
2956;SDS011;1488;51.548;7.222;2022-08-03T06:05:16;5.00;;;2.23;;
2956;SDS011;1488;51.548;7.222;2022-08-03T06:07:43;2.70;;;2.50;;
2956;SDS011;1488;51.548;7.222;2022-08-03T06:10:10;2.67;;;2.47;;
2956;SDS011;1488;51.548;7.222;2022-08-03T06:12:39;2.80;;;2.40;;
2956;SDS011;1488;51.548;7.222;2022-08-03T06:15:06;3.43;;;2.47;;
2956;SDS011;1488;51.548;7.222;2022-08-03T06:17:41;2.60;;;2.40;;
2956;SDS011;1488;51.548;7.222;2022-08-03T06:20:10;2.73;;;2.53;;
2956;SDS011;1488;51.548;7.222;2022-08-03T06:22:37;3.00;;;2.33;;
2956;SDS011;1488;51.548;7.222;2022-08-03T06:25:04;2.90;;;2.20;;
2956;SDS011;1488;51.548;7.222;2022-08-03T06:27:32;2.50;;;2.30;;
2956;SDS011;1488;51.548;7.222;2022-08-03T06:30:00;2.60;;;2.40;;
2956;SDS011;1488;51.548;7.222;2022-08-03T06:32:27;3.27;;;3.07;;
2956;SDS011;1488;51.548;7.222;2022-08-03T06:34:54;2.17;;;2.03;;
2956;SDS011;1488;51.548;7.222;2022-08-03T06:37:21;2.43;;;2.00;;
2956;SDS011;1488;51.548;7.222;2022-08-03T06:39:48;2.97;;;2.43;;
2956;SDS011;1488;51.548;7.222;2022-08-03T06:42:15;1.93;;;1.80;;
2956;SDS011;1488;51.548;7.222;2022-08-03T06:44:42;2.80;;;1.70;;
2956;SDS011;1488;51.548;7.222;2022-08-03T06:47:10;2.80;;;2.60;;
2956;SDS011;1488;51.548;7.222;2022-08-03T06:49:39;3.13;;;2.30;;
2956;SDS011;1488;51.548;7.222;2022-08-03T06:52:06;3.10;;;2.23;;
2956;SDS011;1488;51.548;7.222;2022-08-03T06:54:33;2.70;;;1.90;;
2956;SDS011;1488;51.548;7.222;2022-08-03T06:57:00;2.40;;;2.27;;
2956;SDS011;1488;51.548;7.222;2022-08-03T06:59:27;2.37;;;2.17;;
2956;SDS011;1488;51.548;7.222;2022-08-03T07:01:54;2.33;;;2.13;;
2956;SDS011;1488;51.548;7.222;2022-08-03T07:04:22;2.17;;;2.07;;
2956;SDS011;1488;51.548;7.222;2022-08-03T07:06:49;2.23;;;1.60;;
2956;SDS011;1488;51.548;7.222;2022-08-03T07:09:16;2.17;;;1.90;;
2956;SDS011;1488;51.548;7.222;2022-08-03T07:11:43;1.70;;;1.60;;
2956;SDS011;1488;51.548;7.222;2022-08-03T07:14:10;2.37;;;2.17;;
2956;SDS011;1488;51.548;7.222;2022-08-03T07:16:36;2.40;;;2.20;;
2956;SDS011;1488;51.548;7.222;2022-08-03T07:19:03;2.33;;;2.13;;
2956;SDS011;1488;51.548;7.222;2022-08-03T07:21:31;2.50;;;2.30;;
2956;SDS011;1488;51.548;7.222;2022-08-03T07:23:58;2.60;;;2.30;;
2956;SDS011;1488;51.548;7.222;2022-08-03T07:26:25;2.33;;;2.13;;
2956;SDS011;1488;51.548;7.222;2022-08-03T07:28:52;2.90;;;2.17;;
2956;SDS011;1488;51.548;7.222;2022-08-03T07:31:19;2.70;;;2.10;;
2956;SDS011;1488;51.548;7.222;2022-08-03T07:33:46;2.63;;;2.07;;
2956;SDS011;1488;51.548;7.222;2022-08-03T07:36:12;2.47;;;1.93;;
2956;SDS011;1488;51.548;7.222;2022-08-03T07:38:41;2.50;;;2.27;;
2956;SDS011;1488;51.548;7.222;2022-08-03T07:41:07;2.20;;;1.97;;
2956;SDS011;1488;51.548;7.222;2022-08-03T07:43:34;2.30;;;2.20;;
2956;SDS011;1488;51.548;7.222;2022-08-03T07:46:01;1.87;;;1.77;;
2956;SDS011;1488;51.548;7.222;2022-08-03T07:48:28;2.50;;;2.13;;
2956;SDS011;1488;51.548;7.222;2022-08-03T07:50:55;2.20;;;2.00;;
2956;SDS011;1488;51.548;7.222;2022-08-03T07:53:22;4.10;;;1.90;;
2956;SDS011;1488;51.548;7.222;2022-08-03T07:55:50;2.63;;;2.00;;
2956;SDS011;1488;51.548;7.222;2022-08-03T07:58:17;3.03;;;2.10;;
2956;SDS011;1488;51.548;7.222;2022-08-03T08:00:44;2.20;;;1.90;;
2956;SDS011;1488;51.548;7.222;2022-08-03T08:03:10;2.10;;;1.90;;
2956;SDS011;1488;51.548;7.222;2022-08-03T08:05:37;2.63;;;1.90;;
2956;SDS011;1488;51.548;7.222;2022-08-03T08:08:04;2.33;;;2.10;;
2956;SDS011;1488;51.548;7.222;2022-08-03T08:10:32;2.23;;;2.13;;
2956;SDS011;1488;51.548;7.222;2022-08-03T08:13:00;1.80;;;1.70;;
2956;SDS011;1488;51.548;7.222;2022-08-03T08:15:28;2.10;;;2.00;;
2956;SDS011;1488;51.548;7.222;2022-08-03T08:17:56;2.10;;;1.90;;
2956;SDS011;1488;51.548;7.222;2022-08-03T08:20:25;2.33;;;2.07;;
2956;SDS011;1488;51.548;7.222;2022-08-03T08:22:53;1.87;;;1.77;;
2956;SDS011;1488;51.548;7.222;2022-08-03T08:25:20;1.80;;;1.70;;
2956;SDS011;1488;51.548;7.222;2022-08-03T08:27:48;2.37;;;2.17;;
2956;SDS011;1488;51.548;7.222;2022-08-03T08:30:17;1.90;;;1.73;;
2956;SDS011;1488;51.548;7.222;2022-08-03T08:32:45;1.50;;;1.40;;
2956;SDS011;1488;51.548;7.222;2022-08-03T08:35:13;2.07;;;1.50;;
2956;SDS011;1488;51.548;7.222;2022-08-03T08:37:40;2.17;;;1.97;;
2956;SDS011;1488;51.548;7.222;2022-08-03T08:40:07;2.20;;;2.00;;
2956;SDS011;1488;51.548;7.222;2022-08-03T08:42:36;2.03;;;1.93;;
2956;SDS011;1488;51.548;7.222;2022-08-03T08:45:03;1.77;;;1.67;;
2956;SDS011;1488;51.548;7.222;2022-08-03T08:47:35;1.77;;;1.67;;
2956;SDS011;1488;51.548;7.222;2022-08-03T08:50:04;1.90;;;1.70;;
2956;SDS011;1488;51.548;7.222;2022-08-03T08:52:35;1.60;;;1.50;;
2956;SDS011;1488;51.548;7.222;2022-08-03T08:55:06;2.03;;;1.73;;
2956;SDS011;1488;51.548;7.222;2022-08-03T08:57:34;2.40;;;1.50;;
2956;SDS011;1488;51.548;7.222;2022-08-03T09:00:03;2.00;;;1.77;;
2956;SDS011;1488;51.548;7.222;2022-08-03T09:02:31;2.10;;;1.73;;
2956;SDS011;1488;51.548;7.222;2022-08-03T09:05:00;1.70;;;1.60;;
2956;SDS011;1488;51.548;7.222;2022-08-03T09:07:27;2.00;;;1.80;;
2956;SDS011;1488;51.548;7.222;2022-08-03T09:09:54;1.50;;;1.40;;
2956;SDS011;1488;51.548;7.222;2022-08-03T09:12:22;3.03;;;1.63;;
2956;SDS011;1488;51.548;7.222;2022-08-03T09:14:48;2.10;;;1.90;;
2956;SDS011;1488;51.548;7.222;2022-08-03T09:17:15;1.73;;;1.63;;
2956;SDS011;1488;51.548;7.222;2022-08-03T09:19:46;2.63;;;1.90;;
2956;SDS011;1488;51.548;7.222;2022-08-03T09:22:29;3.63;;;1.77;;
2956;SDS011;1488;51.548;7.222;2022-08-03T09:24:59;4.30;;;1.50;;
2956;SDS011;1488;51.548;7.222;2022-08-03T09:27:27;2.60;;;1.90;;
2956;SDS011;1488;51.548;7.222;2022-08-03T09:29:54;1.97;;;1.87;;
2956;SDS011;1488;51.548;7.222;2022-08-03T09:32:23;2.50;;;2.10;;
2956;SDS011;1488;51.548;7.222;2022-08-03T09:34:52;1.50;;;1.40;;
2956;SDS011;1488;51.548;7.222;2022-08-03T09:37:19;2.90;;;2.00;;
2956;SDS011;1488;51.548;7.222;2022-08-03T09:39:49;1.70;;;1.60;;
2956;SDS011;1488;51.548;7.222;2022-08-03T09:42:17;1.80;;;1.70;;
2956;SDS011;1488;51.548;7.222;2022-08-03T09:44:46;2.40;;;2.20;;
2956;SDS011;1488;51.548;7.222;2022-08-03T09:47:15;1.70;;;1.60;;
2956;SDS011;1488;51.548;7.222;2022-08-03T09:49:56;1.97;;;1.80;;
2956;SDS011;1488;51.548;7.222;2022-08-03T09:52:28;1.60;;;1.50;;
2956;SDS011;1488;51.548;7.222;2022-08-03T09:54:57;1.70;;;1.53;;
2956;SDS011;1488;51.548;7.222;2022-08-03T09:57:26;2.33;;;2.13;;
2956;SDS011;1488;51.548;7.222;2022-08-03T10:00:04;1.57;;;1.47;;
2956;SDS011;1488;51.548;7.222;2022-08-03T10:02:34;2.53;;;2.03;;
2956;SDS011;1488;51.548;7.222;2022-08-03T10:05:04;4.70;;;1.70;;
2956;SDS011;1488;51.548;7.222;2022-08-03T10:07:40;2.37;;;1.60;;
2956;SDS011;1488;51.548;7.222;2022-08-03T10:10:08;1.60;;;1.50;;
2956;SDS011;1488;51.548;7.222;2022-08-03T10:12:35;2.07;;;1.70;;
2956;SDS011;1488;51.548;7.222;2022-08-03T10:15:03;2.10;;;1.90;;
2956;SDS011;1488;51.548;7.222;2022-08-03T10:17:30;1.67;;;1.50;;
2956;SDS011;1488;51.548;7.222;2022-08-03T10:19:57;4.00;;;1.90;;
2956;SDS011;1488;51.548;7.222;2022-08-03T10:22:26;1.70;;;1.60;;
2956;SDS011;1488;51.548;7.222;2022-08-03T10:24:58;2.80;;;1.33;;
2956;SDS011;1488;51.548;7.222;2022-08-03T10:27:30;1.97;;;1.50;;
2956;SDS011;1488;51.548;7.222;2022-08-03T10:30:00;1.60;;;1.50;;
2956;SDS011;1488;51.548;7.222;2022-08-03T10:32:32;1.60;;;1.50;;
2956;SDS011;1488;51.548;7.222;2022-08-03T10:35:03;1.80;;;1.40;;
2956;SDS011;1488;51.548;7.222;2022-08-03T10:37:33;3.13;;;2.00;;
2956;SDS011;1488;51.548;7.222;2022-08-03T10:40:05;1.60;;;1.30;;
2956;SDS011;1488;51.548;7.222;2022-08-03T10:42:33;1.63;;;1.53;;
2956;SDS011;1488;51.548;7.222;2022-08-03T10:45:03;1.40;;;1.30;;
2956;SDS011;1488;51.548;7.222;2022-08-03T10:47:32;1.50;;;1.40;;
2956;SDS011;1488;51.548;7.222;2022-08-03T10:50:00;1.60;;;1.50;;
2956;SDS011;1488;51.548;7.222;2022-08-03T10:52:28;2.53;;;1.60;;
2956;SDS011;1488;51.548;7.222;2022-08-03T10:54:56;1.60;;;1.40;;
2956;SDS011;1488;51.548;7.222;2022-08-03T10:57:50;1.97;;;1.80;;
2956;SDS011;1488;51.548;7.222;2022-08-03T11:00:18;4.40;;;1.60;;
2956;SDS011;1488;51.548;7.222;2022-08-03T11:03:00;1.80;;;1.70;;
2956;SDS011;1488;51.548;7.222;2022-08-03T11:05:33;2.47;;;1.60;;
2956;SDS011;1488;51.548;7.222;2022-08-03T11:10:56;1.50;;;1.40;;
2956;SDS011;1488;51.548;7.222;2022-08-03T11:13:26;3.53;;;1.53;;
2956;SDS011;1488;51.548;7.222;2022-08-03T11:15:56;2.23;;;1.50;;
2956;SDS011;1488;51.548;7.222;2022-08-03T11:18:24;1.43;;;1.33;;
2956;SDS011;1488;51.548;7.222;2022-08-03T11:20:52;1.57;;;1.47;;
2956;SDS011;1488;51.548;7.222;2022-08-03T12:05:49;1.20;;;1.10;;
2956;SDS011;1488;51.548;7.222;2022-08-03T12:08:17;3.53;;;1.33;;
2956;SDS011;1488;51.548;7.222;2022-08-03T12:10:55;1.80;;;1.50;;
2956;SDS011;1488;51.548;7.222;2022-08-03T12:13:24;2.43;;;1.70;;
2956;SDS011;1488;51.548;7.222;2022-08-03T12:15:52;3.30;;;1.57;;
2956;SDS011;1488;51.548;7.222;2022-08-03T12:18:22;2.33;;;1.80;;
2956;SDS011;1488;51.548;7.222;2022-08-03T12:20:49;2.83;;;1.60;;
2956;SDS011;1488;51.548;7.222;2022-08-03T12:23:18;2.33;;;1.60;;
2956;SDS011;1488;51.548;7.222;2022-08-03T12:25:46;2.47;;;1.40;;
2956;SDS011;1488;51.548;7.222;2022-08-03T12:28:14;4.63;;;1.70;;
2956;SDS011;1488;51.548;7.222;2022-08-03T12:30:44;1.77;;;1.67;;
2956;SDS011;1488;51.548;7.222;2022-08-03T12:33:18;2.17;;;1.50;;
2956;SDS011;1488;51.548;7.222;2022-08-03T12:36:01;4.87;;;1.87;;
2956;SDS011;1488;51.548;7.222;2022-08-03T12:38:32;1.97;;;1.67;;
2956;SDS011;1488;51.548;7.222;2022-08-03T12:41:01;2.03;;;1.53;;
2956;SDS011;1488;51.548;7.222;2022-08-03T12:43:29;2.00;;;1.50;;
2956;SDS011;1488;51.548;7.222;2022-08-03T12:46:10;3.93;;;1.50;;
2956;SDS011;1488;51.548;7.222;2022-08-03T12:51:32;2.10;;;1.90;;
2956;SDS011;1488;51.548;7.222;2022-08-03T12:54:01;2.07;;;1.23;;
2956;SDS011;1488;51.548;7.222;2022-08-03T12:56:29;8.40;;;1.70;;
2956;SDS011;1488;51.548;7.222;2022-08-03T12:58:56;2.20;;;1.27;;
2956;SDS011;1488;51.548;7.222;2022-08-03T13:01:23;2.30;;;1.50;;
2956;SDS011;1488;51.548;7.222;2022-08-03T13:03:51;1.20;;;1.10;;
2956;SDS011;1488;51.548;7.222;2022-08-03T13:06:19;4.00;;;1.37;;
2956;SDS011;1488;51.548;7.222;2022-08-03T13:08:49;2.57;;;1.37;;
2956;SDS011;1488;51.548;7.222;2022-08-03T13:11:27;1.37;;;1.27;;
2956;SDS011;1488;51.548;7.222;2022-08-03T13:13:54;2.30;;;1.33;;
2956;SDS011;1488;51.548;7.222;2022-08-03T13:16:21;1.60;;;1.30;;
2956;SDS011;1488;51.548;7.222;2022-08-03T13:18:48;1.20;;;1.10;;
2956;SDS011;1488;51.548;7.222;2022-08-03T13:21:18;1.90;;;1.63;;
2956;SDS011;1488;51.548;7.222;2022-08-03T13:23:45;1.43;;;1.30;;
2956;SDS011;1488;51.548;7.222;2022-08-03T13:26:14;3.47;;;1.53;;
2956;SDS011;1488;51.548;7.222;2022-08-03T13:28:41;1.20;;;1.10;;
2956;SDS011;1488;51.548;7.222;2022-08-03T13:31:07;1.60;;;1.17;;
2956;SDS011;1488;51.548;7.222;2022-08-03T13:33:34;2.00;;;1.50;;
2956;SDS011;1488;51.548;7.222;2022-08-03T13:36:03;1.97;;;1.47;;
2956;SDS011;1488;51.548;7.222;2022-08-03T13:38:30;1.50;;;1.40;;
2956;SDS011;1488;51.548;7.222;2022-08-03T13:40:57;2.40;;;1.10;;
2956;SDS011;1488;51.548;7.222;2022-08-03T13:43:26;3.30;;;1.27;;
2956;SDS011;1488;51.548;7.222;2022-08-03T13:45:53;1.93;;;1.27;;
2956;SDS011;1488;51.548;7.222;2022-08-03T13:48:20;1.73;;;1.57;;
2956;SDS011;1488;51.548;7.222;2022-08-03T13:50:46;1.70;;;1.30;;
2956;SDS011;1488;51.548;7.222;2022-08-03T13:53:13;1.70;;;1.30;;
2956;SDS011;1488;51.548;7.222;2022-08-03T13:55:40;1.43;;;1.33;;
2956;SDS011;1488;51.548;7.222;2022-08-03T13:58:07;1.30;;;1.20;;
2956;SDS011;1488;51.548;7.222;2022-08-03T14:00:37;1.20;;;1.10;;
2956;SDS011;1488;51.548;7.222;2022-08-03T14:03:04;1.37;;;1.27;;
2956;SDS011;1488;51.548;7.222;2022-08-03T14:05:32;1.30;;;1.10;;
2956;SDS011;1488;51.548;7.222;2022-08-03T14:07:59;2.40;;;1.40;;
2956;SDS011;1488;51.548;7.222;2022-08-03T14:10:26;1.93;;;1.30;;
2956;SDS011;1488;51.548;7.222;2022-08-03T14:12:53;1.47;;;1.10;;
2956;SDS011;1488;51.548;7.222;2022-08-03T14:15:24;1.10;;;0.90;;
2956;SDS011;1488;51.548;7.222;2022-08-03T14:17:53;1.23;;;1.10;;
2956;SDS011;1488;51.548;7.222;2022-08-03T14:20:21;2.43;;;1.23;;
2956;SDS011;1488;51.548;7.222;2022-08-03T14:22:48;2.40;;;1.50;;
2956;SDS011;1488;51.548;7.222;2022-08-03T14:25:15;2.60;;;1.70;;
2956;SDS011;1488;51.548;7.222;2022-08-03T14:27:42;2.73;;;1.13;;
2956;SDS011;1488;51.548;7.222;2022-08-03T14:30:09;1.50;;;1.30;;
2956;SDS011;1488;51.548;7.222;2022-08-03T14:32:37;1.30;;;1.20;;
2956;SDS011;1488;51.548;7.222;2022-08-03T14:35:06;2.20;;;1.27;;
2956;SDS011;1488;51.548;7.222;2022-08-03T14:37:34;1.57;;;1.10;;
2956;SDS011;1488;51.548;7.222;2022-08-03T14:40:01;2.00;;;1.53;;
2956;SDS011;1488;51.548;7.222;2022-08-03T14:42:29;5.60;;;1.30;;
2956;SDS011;1488;51.548;7.222;2022-08-03T14:44:55;5.57;;;1.30;;
2956;SDS011;1488;51.548;7.222;2022-08-03T14:47:22;1.57;;;1.40;;
2956;SDS011;1488;51.548;7.222;2022-08-03T14:49:49;5.53;;;1.17;;
2956;SDS011;1488;51.548;7.222;2022-08-03T14:52:18;1.77;;;1.10;;
2956;SDS011;1488;51.548;7.222;2022-08-03T14:54:45;2.27;;;1.30;;
2956;SDS011;1488;51.548;7.222;2022-08-03T14:57:11;1.60;;;1.30;;
2956;SDS011;1488;51.548;7.222;2022-08-03T14:59:38;3.30;;;1.13;;
2956;SDS011;1488;51.548;7.222;2022-08-03T15:02:05;4.00;;;1.23;;
2956;SDS011;1488;51.548;7.222;2022-08-03T15:04:32;2.43;;;1.03;;
2956;SDS011;1488;51.548;7.222;2022-08-03T15:06:59;2.00;;;1.90;;
2956;SDS011;1488;51.548;7.222;2022-08-03T15:09:27;6.83;;;1.43;;
2956;SDS011;1488;51.548;7.222;2022-08-03T15:11:54;1.50;;;1.10;;
2956;SDS011;1488;51.548;7.222;2022-08-03T15:14:21;5.20;;;1.23;;
2956;SDS011;1488;51.548;7.222;2022-08-03T15:16:48;1.33;;;1.10;;
2956;SDS011;1488;51.548;7.222;2022-08-03T15:19:15;2.10;;;1.40;;
2956;SDS011;1488;51.548;7.222;2022-08-03T15:21:42;3.93;;;1.10;;
2956;SDS011;1488;51.548;7.222;2022-08-03T15:24:09;2.53;;;1.20;;
2956;SDS011;1488;51.548;7.222;2022-08-03T15:26:37;1.30;;;1.20;;
2956;SDS011;1488;51.548;7.222;2022-08-03T15:29:04;2.30;;;1.47;;
2956;SDS011;1488;51.548;7.222;2022-08-03T15:31:32;7.70;;;1.57;;
2956;SDS011;1488;51.548;7.222;2022-08-03T15:33:59;1.27;;;1.17;;
2956;SDS011;1488;51.548;7.222;2022-08-03T15:36:26;1.73;;;1.37;;
2956;SDS011;1488;51.548;7.222;2022-08-03T15:38:53;1.20;;;1.10;;
2956;SDS011;1488;51.548;7.222;2022-08-03T15:41:20;1.60;;;1.27;;
2956;SDS011;1488;51.548;7.222;2022-08-03T15:43:48;2.37;;;1.20;;
2956;SDS011;1488;51.548;7.222;2022-08-03T15:46:16;2.70;;;1.40;;
2956;SDS011;1488;51.548;7.222;2022-08-03T15:48:43;1.53;;;1.20;;
2956;SDS011;1488;51.548;7.222;2022-08-03T15:51:11;1.50;;;1.40;;
2956;SDS011;1488;51.548;7.222;2022-08-03T15:53:38;1.73;;;1.33;;
2956;SDS011;1488;51.548;7.222;2022-08-03T15:56:05;2.50;;;1.30;;
2956;SDS011;1488;51.548;7.222;2022-08-03T15:58:34;3.47;;;1.13;;
2956;SDS011;1488;51.548;7.222;2022-08-03T16:01:03;4.90;;;1.20;;
2956;SDS011;1488;51.548;7.222;2022-08-03T16:03:30;2.30;;;1.20;;
2956;SDS011;1488;51.548;7.222;2022-08-03T16:05:59;1.37;;;1.10;;
2956;SDS011;1488;51.548;7.222;2022-08-03T16:08:27;1.20;;;1.10;;
2956;SDS011;1488;51.548;7.222;2022-08-03T16:10:54;1.27;;;1.00;;
2956;SDS011;1488;51.548;7.222;2022-08-03T16:13:21;1.10;;;1.00;;
2956;SDS011;1488;51.548;7.222;2022-08-03T16:15:48;1.37;;;1.27;;